TimePST,TemperatureF,Dew PointF,Humidity,Sea Level PressureIn,VisibilityMPH,Wind Direction,Wind SpeedMPH,Gust SpeedMPH,PrecipitationIn,Events,Conditions,WindDirDegrees,DateUTC
12:53 AM,59.0,51.1,75,30.03,10.0,South,5.8,-,N/A,,Partly Cloudy,190,2012-12-01 08:53:00
1:53 AM,59.0,50.0,72,30.00,10.0,South,5.8,-,N/A,,Scattered Clouds,190,2012-12-01 09:53:00
2:53 AM,57.9,51.1,78,29.99,10.0,Calm,Calm,-,N/A,,Overcast,0,2012-12-01 10:53:00
4:53 AM,60.1,52.0,75,29.98,10.0,SW,3.5,-,0.00,Rain,Light Rain,220,2012-12-01 12:53:00
6:53 AM,57.9,54.0,87,29.98,10.0,NNE,5.8,-,0.00,,Overcast,30,2012-12-01 14:53:00
7:53 AM,60.1,55.0,83,29.99,3.0,SW,4.6,-,0.00,Rain,Light Rain,220,2012-12-01 15:53:00
8:40 AM,60.8,57.2,88,30.01,7.0,SSW,9.2,-,0.01,Rain,Light Rain,210,2012-12-01 16:40:00
8:53 AM,62.1,55.9,80,30.01,10.0,SSW,16.1,21.9,0.01,,Mostly Cloudy,200,2012-12-01 16:53:00
9:53 AM,63.0,57.0,81,30.03,10.0,SW,11.5,-,N/A,,Mostly Cloudy,220,2012-12-01 17:53:00
11:00 AM,64.4,57.2,77,30.03,10.0,SSW,12.7,-,N/A,,Scattered Clouds,210,2012-12-01 19:00:00
11:02 AM,64.4,57.2,77,30.03,10.0,SSW,12.7,-,N/A,,Mostly Cloudy,210,2012-12-01 19:02:00
11:53 AM,64.9,55.9,73,30.00,10.0,South,6.9,-,N/A,,Overcast,190,2012-12-01 19:53:00
12:53 PM,64.0,57.9,80,29.99,10.0,SW,11.5,-,0.01,,Mostly Cloudy,230,2012-12-01 20:53:00
1:53 PM,64.0,55.0,73,29.99,10.0,SSW,12.7,-,0.00,,Overcast,200,2012-12-01 21:53:00
2:53 PM,64.0,54.0,70,29.99,10.0,SSW,9.2,-,N/A,,Mostly Cloudy,200,2012-12-01 22:53:00
3:53 PM,62.1,54.0,75,29.97,10.0,South,5.8,-,0.00,Rain,Light Rain,190,2012-12-01 23:53:00
4:53 PM,61.0,54.0,78,29.97,10.0,Calm,Calm,-,0.00,,Overcast,0,2012-12-02 00:53:00
5:53 PM,60.1,54.0,80,29.96,10.0,SSW,5.8,-,N/A,,Overcast,210,2012-12-02 01:53:00
6:53 PM,60.1,54.0,80,29.95,10.0,Calm,Calm,-,0.00,Rain,Light Rain,0,2012-12-02 02:53:00
7:53 PM,59.0,54.0,83,29.95,5.0,Calm,Calm,-,0.02,Rain,Rain,0,2012-12-02 03:53:00
8:53 PM,57.9,55.0,90,29.91,7.0,Variable,3.5,-,0.11,Rain,Light Rain,0,2012-12-02 04:53:00
9:53 PM,60.1,55.0,83,29.91,9.0,South,13.8,19.6,0.04,Rain,Light Rain,190,2012-12-02 05:53:00
10:53 PM,62.1,54.0,75,29.91,10.0,SSW,12.7,19.6,0.00,,Overcast,210,2012-12-02 06:53:00
11:53 PM,61.0,55.0,81,29.90,8.0,SSW,11.5,19.6,0.00,Rain,Light Rain,200,2012-12-02 07:53:00